• Join FlightAware (Why Join?)
  • Login
  • US Flag 
09:46PM EST


 

Airport Tracker/Info


-or-


 

Live Flight TrackerFlight Track Log ✈ CSH9417 ✈ 29-Dec-2013 ✈ ZSSS / SHA - ZSLG / LYG

Flight Track Log - Related Links

Times and Time Zones

All times are in EST time to prevent confusion due to time zone crossing. See the CSH9417 flight status page for this flight to view local times or setup timezone preferences in your user account.

Time Position Orientation Groundspeed Altitude Reporting Facility
EST Latitude Longitude Course Direction KTS MPH feet Rate Location/Type
07:02AM 31.7459 120.9511 329° Northwest  Level Estimated
07:03AM 31.8006 120.9123 329° Northwest  Level Estimated
07:04AM 31.8553 120.8735 329° Northwest  Level Estimated
07:05AM 31.9100 120.8346 329° Northwest  Level Estimated
07:06AM 31.9647 120.7957 329° Northwest  Level Estimated
07:07AM 32.0194 120.7568 329° Northwest  Level Estimated
07:08AM 32.0741 120.7178 329° Northwest  Level Estimated
07:09AM 32.1287 120.6787 329° Northwest  Level Estimated
07:10AM 32.1834 120.6396 329° Northwest  Level Estimated
07:11AM 32.2380 120.6004 329° Northwest  Level Estimated
07:12AM 32.2927 120.5613 329° Northwest  Level Estimated
07:13AM 32.3473 120.5220 329° Northwest  Level Estimated
07:14AM 32.4019 120.4827 329° Northwest  Level Estimated
07:15AM 32.4565 120.4434 329° Northwest  Level Estimated
07:16AM 32.5111 120.4040 329° Northwest  Level Estimated
07:17AM 32.5656 120.3646 329° Northwest  Level Estimated
07:18AM 32.6202 120.3251 329° Northwest  Level Estimated
07:19AM 32.6747 120.2856 329° Northwest  Level Estimated
07:20AM 32.7292 120.2460 329° Northwest  Level Estimated
07:21AM 32.7838 120.2064 329° Northwest  Level Estimated
07:22AM 32.8383 120.1667 329° Northwest  Level Estimated
07:23AM 32.8927 120.1270 329° Northwest  Level Estimated
07:24AM 32.9472 120.0872 329° Northwest  Level Estimated
07:25AM 33.0017 120.0474 328° Northwest  Level Estimated
07:26AM 33.0561 120.0075 328° Northwest  Level Estimated
07:27AM 33.1106 119.9676 328° Northwest  Level Estimated
07:28AM 33.1650 119.9277 328° Northwest  Level Estimated
07:29AM 33.2194 119.8876 328° Northwest  Level Estimated
07:30AM 33.2738 119.8476 328° Northwest  Level Estimated
07:31AM 33.3282 119.8074 328° Northwest  Level Estimated
07:32AM 33.3826 119.7673 328° Northwest  Level Estimated
07:33AM 33.4370 119.7271 328° Northwest  Level Estimated
07:34AM 33.4913 119.6868 328° Northwest  Level Estimated
07:35AM 33.5457 119.6465 328° Northwest  Level Estimated
07:36AM 33.6000 119.6061 328° Northwest  Level Estimated
07:37AM 33.6543 119.5657 328° Northwest  Level Estimated
07:38AM 33.7086 119.5252 328° Northwest  Level Estimated
07:39AM 33.7629 119.4847 328° Northwest  Level Estimated
07:40AM 33.8172 119.4441 328° Northwest  Level Estimated
07:41AM 33.8714 119.4035 328° Northwest  Level Estimated
07:42AM 33.9257 119.3628 328° Northwest  Level Estimated
07:43AM 33.9799 119.3221 328° Northwest  Level Estimated
07:44AM 34.0341 119.2813 328° Northwest  Level Estimated
07:45AM 34.0883 119.2405 328° Northwest  Level Estimated
07:46AM 34.1425 119.1996 328° Northwest  Level Estimated
07:47AM 34.1967 119.1587 328° Northwest  Level Estimated
07:48AM 34.2509 119.1177 328° Northwest  Level Estimated
07:49AM 34.3050 119.0766 328° Northwest  Level Estimated
07:50AM 34.3591 119.0355 328° Northwest  Level Estimated